createdAt,value
2023-01-28T00:02:12.299Z,42.81
2023-01-28T00:04:39.685Z,43.04
2023-01-28T00:07:08.393Z,42.75
2023-01-28T00:09:35.583Z,42.57
2023-01-28T00:12:02.865Z,42.61
2023-01-28T00:14:30.044Z,43.38
2023-01-28T00:16:58.608Z,43.31
2023-01-28T00:19:25.744Z,43.38
2023-01-28T00:21:54.015Z,42.96
2023-01-28T00:24:21.472Z,42.04
2023-01-28T00:26:49.369Z,42.43
2023-01-28T00:29:16.839Z,42.06
2023-01-28T00:31:44.035Z,42.28
2023-01-28T00:34:12.707Z,42.17
2023-01-28T00:36:39.986Z,43.06
2023-01-28T00:39:11.846Z,42.79
2023-01-28T00:41:39.664Z,43.86
2023-01-28T00:44:09.411Z,44.55
2023-01-28T00:46:38.143Z,43.51
2023-01-28T00:49:05.690Z,43.40
2023-01-28T00:51:34.385Z,43.09
2023-01-28T00:54:01.633Z,42.36
2023-01-28T00:56:28.825Z,42.66
2023-01-28T00:58:56.095Z,42.69
2023-01-28T01:01:26.274Z,42.36
2023-01-28T01:03:54.964Z,42.72
2023-01-28T01:06:24.287Z,42.28
2023-01-28T01:08:53.588Z,42.09
2023-01-28T01:11:21.868Z,41.80
2023-01-28T01:13:54.124Z,41.67
2023-01-28T01:16:23.123Z,42.67
2023-01-28T01:18:52.685Z,42.68
2023-01-28T01:21:22.610Z,41.70
2023-01-28T01:23:50.032Z,41.25
2023-01-28T01:26:19.909Z,40.98
2023-01-28T01:28:47.484Z,40.33
2023-01-28T01:31:17.504Z,40.76
2023-01-28T01:33:47.226Z,41.60
2023-01-28T01:36:16.903Z,40.15
2023-01-28T01:38:44.105Z,40.01
2023-01-28T01:41:25.184Z,40.76
2023-01-28T01:43:54.547Z,39.90
2023-01-28T01:46:30.596Z,40.41
2023-01-28T01:49:06.944Z,40.34
2023-01-28T01:51:37.660Z,40.01
2023-01-28T01:54:05.646Z,40.03
2023-01-28T01:56:42.546Z,39.59
2023-01-28T01:59:15.884Z,40.44
2023-01-28T02:01:45.183Z,40.20
2023-01-28T02:04:19.927Z,39.99
2023-01-28T02:06:48.349Z,40.16
2023-01-28T02:09:26.241Z,39.90
2023-01-28T02:11:59.245Z,39.94
2023-01-28T02:14:32.422Z,39.25
2023-01-28T02:17:01.647Z,39.92
2023-01-28T02:19:37.509Z,40.87
2023-01-28T02:22:26.865Z,40.78
2023-01-28T02:25:24.986Z,40.09
2023-01-28T02:28:17.902Z,40.17
2023-01-28T02:30:54.942Z,40.46
2023-01-28T02:33:31.986Z,42.07
2023-01-28T02:36:09.903Z,40.31
2023-01-28T02:38:45.923Z,39.90
2023-01-28T02:41:21.683Z,40.34
2023-01-28T02:43:50.406Z,41.65
2023-01-28T02:46:33.275Z,43.02
2023-01-28T02:49:01.064Z,40.94
2023-01-28T02:51:41.130Z,40.06
2023-01-28T02:54:15.027Z,39.12
2023-01-28T02:56:56.223Z,39.80
2023-01-28T02:59:33.661Z,43.96
2023-01-28T03:02:11.501Z,43.24
2023-01-28T03:04:48.149Z,40.60
2023-01-28T03:07:18.842Z,40.79
2023-01-28T03:09:49.596Z,40.81
2023-01-28T03:12:22.163Z,40.11
2023-01-28T03:14:55.685Z,45.63
2023-01-28T03:17:30.717Z,41.43
2023-01-28T03:19:58.043Z,40.33
2023-01-28T03:22:32.783Z,43.89
2023-01-28T03:25:02.773Z,42.44
2023-01-28T03:27:40.382Z,38.39
2023-01-28T03:30:15.881Z,38.88
2023-01-28T03:32:45.686Z,39.45
2023-01-28T03:35:18.505Z,41.05
2023-01-28T03:37:46.294Z,40.18
2023-01-28T03:40:14.574Z,42.26
2023-01-28T03:42:41.684Z,39.28
2023-01-28T03:45:11.818Z,40.65
2023-01-28T03:47:38.974Z,45.33
2023-01-28T03:50:06.707Z,39.65
2023-01-28T03:52:34.003Z,40.26
2023-01-28T03:55:01.303Z,41.50
2023-01-28T03:57:29.025Z,39.97
2023-01-28T03:59:56.163Z,41.44
2023-01-28T04:02:24.769Z,41.18
2023-01-28T04:04:51.969Z,40.52
2023-01-28T04:07:19.086Z,42.62
2023-01-28T04:09:46.162Z,40.52
2023-01-28T04:12:13.302Z,43.71
2023-01-28T04:14:40.439Z,40.23
2023-01-28T04:17:07.675Z,40.89
2023-01-28T04:19:36.586Z,40.02
2023-01-28T04:22:08.409Z,40.17
2023-01-28T04:24:35.481Z,40.47
2023-01-28T04:27:02.642Z,41.36
2023-01-28T04:29:29.839Z,39.51
2023-01-28T04:31:56.924Z,39.55
2023-01-28T04:34:24.120Z,39.69
2023-01-28T04:36:52.702Z,39.65
2023-01-28T04:39:19.825Z,40.69
2023-01-28T04:41:47.022Z,42.36
2023-01-28T04:44:14.243Z,41.79
2023-01-28T04:46:41.463Z,39.66
2023-01-28T04:49:08.782Z,40.75
2023-01-28T04:51:36.007Z,41.02
2023-01-28T04:54:04.751Z,42.97
2023-01-28T04:56:31.962Z,39.13
2023-01-28T04:58:59.123Z,40.52
2023-01-28T05:01:26.514Z,41.25
2023-01-28T05:03:53.642Z,41.81
2023-01-28T05:06:20.822Z,39.56
2023-01-28T05:08:47.961Z,39.95
2023-01-28T05:11:16.667Z,39.23
2023-01-28T05:13:43.723Z,39.20
2023-01-28T05:16:10.825Z,39.73
2023-01-28T05:18:38.061Z,39.48
2023-01-28T05:21:05.843Z,39.89
2023-01-28T05:23:33.046Z,40.66
2023-01-28T05:26:00.427Z,40.35
2023-01-28T05:28:28.965Z,40.05
2023-01-28T05:30:56.174Z,41.57
2023-01-28T05:33:23.243Z,41.00
2023-01-28T05:35:50.451Z,40.54
2023-01-28T05:38:17.536Z,40.00
2023-01-28T05:40:44.743Z,38.82
2023-01-28T05:43:11.904Z,41.25
2023-01-28T05:45:40.495Z,39.25
2023-01-28T05:48:08.468Z,39.61
2023-01-28T05:50:35.743Z,39.31
2023-01-28T05:53:05.823Z,40.08
2023-01-28T05:55:33.343Z,40.16
2023-01-28T05:58:00.512Z,43.09
2023-01-28T06:00:27.878Z,43.05
2023-01-28T06:02:56.564Z,40.17
2023-01-28T06:05:23.820Z,41.20
2023-01-28T06:07:51.283Z,40.76
2023-01-28T06:10:18.679Z,40.20
2023-01-28T06:12:46.062Z,39.81
2023-01-28T06:15:13.293Z,39.80
2023-01-28T06:17:40.443Z,42.29
2023-01-28T06:20:10.923Z,41.28
2023-01-28T06:22:38.124Z,41.04
2023-01-28T06:25:06.481Z,41.15
2023-01-28T06:27:33.683Z,41.84
2023-01-28T06:30:00.763Z,42.07
2023-01-28T06:32:28.568Z,42.22
2023-01-28T06:34:56.185Z,41.43
2023-01-28T06:37:26.238Z,40.96
2023-01-28T06:39:53.582Z,40.56
2023-01-28T06:42:20.706Z,40.36
2023-01-28T06:44:47.783Z,41.55
2023-01-28T06:47:14.903Z,41.09
2023-01-28T06:49:42.064Z,42.12
2023-01-28T06:52:09.261Z,44.46
2023-01-28T06:54:37.925Z,41.98
2023-01-28T06:57:05.004Z,41.98
2023-01-28T06:59:32.126Z,40.52
2023-01-28T07:01:59.260Z,40.74
2023-01-28T07:04:26.564Z,40.95
2023-01-28T07:06:53.824Z,40.83
2023-01-28T07:09:21.070Z,40.81
2023-01-28T07:11:49.765Z,41.20
2023-01-28T07:14:16.845Z,41.88
2023-01-28T07:16:44.067Z,41.28
2023-01-28T07:19:11.265Z,42.13
2023-01-28T07:21:38.435Z,40.97
2023-01-28T07:24:06.059Z,40.94
2023-01-28T07:26:33.243Z,42.33
2023-01-28T07:29:01.779Z,41.67
2023-01-28T07:31:29.024Z,41.17
2023-01-28T07:33:56.226Z,43.96
2023-01-28T07:36:23.450Z,42.34
2023-01-28T07:38:50.503Z,42.47
2023-01-28T07:41:17.644Z,41.82
2023-01-28T07:43:44.744Z,41.65
2023-01-28T07:46:13.423Z,41.41
2023-01-28T07:48:40.542Z,41.98
2023-01-28T07:51:07.948Z,46.00
2023-01-28T07:53:35.703Z,40.18
2023-01-28T07:56:03.223Z,43.31
2023-01-28T07:58:30.423Z,38.72
2023-01-28T08:00:59.136Z,37.15
2023-01-28T08:03:28.642Z,36.96
2023-01-28T08:05:57.148Z,37.29
2023-01-28T08:08:26.620Z,36.88
2023-01-28T08:10:54.445Z,37.00
2023-01-28T08:13:21.647Z,35.18
2023-01-28T08:15:48.876Z,35.25
2023-01-28T08:18:17.370Z,35.88
2023-01-28T08:20:46.042Z,33.90
2023-01-28T08:23:15.993Z,35.40
2023-01-28T08:25:43.952Z,33.06
2023-01-28T08:28:12.884Z,33.55
2023-01-28T08:30:41.310Z,33.75
2023-01-28T08:33:11.042Z,33.32
2023-01-28T08:35:38.706Z,37.08
2023-01-28T08:38:08.821Z,33.33
2023-01-28T08:40:37.030Z,32.49
2023-01-28T08:43:05.181Z,33.52
2023-01-28T08:45:32.964Z,34.23
2023-01-28T08:48:01.737Z,32.42
2023-01-28T08:50:32.003Z,33.17
2023-01-28T08:53:00.775Z,32.46
2023-01-28T08:55:30.485Z,31.72
2023-01-28T08:57:58.756Z,31.85
2023-01-28T09:00:26.169Z,32.75
2023-01-28T09:02:53.963Z,32.80
2023-01-28T09:05:21.931Z,32.75
2023-01-28T09:07:49.644Z,33.20
2023-01-28T09:10:18.382Z,33.32
2023-01-28T09:12:47.904Z,33.51
2023-01-28T09:15:15.625Z,33.23
2023-01-28T09:17:42.685Z,34.20
2023-01-28T09:20:11.422Z,32.20
2023-01-28T09:22:38.691Z,32.39
2023-01-28T09:25:06.534Z,32.70
2023-01-28T09:27:33.926Z,31.66
2023-01-28T09:30:02.704Z,32.13
2023-01-28T09:32:29.867Z,33.34
2023-01-28T09:34:57.023Z,32.89
2023-01-28T09:37:24.254Z,33.27
2023-01-28T09:39:51.394Z,31.50
2023-01-28T09:42:47.335Z,32.16
2023-01-28T09:45:22.164Z,35.79
2023-01-28T09:47:52.811Z,33.06
2023-01-28T09:50:28.047Z,31.58
2023-01-28T09:53:01.370Z,31.16
2023-01-28T09:55:34.445Z,30.50
2023-01-28T09:58:05.564Z,32.80
2023-01-28T10:00:43.509Z,30.50
2023-01-28T10:03:40.534Z,30.27
2023-01-28T10:06:23.364Z,32.57
2023-01-28T10:09:19.304Z,30.95
2023-01-28T10:12:03.599Z,32.40
2023-01-28T10:14:45.722Z,32.97
2023-01-28T10:17:21.848Z,33.02
2023-01-28T10:19:56.648Z,34.84
2023-01-28T10:22:30.082Z,34.59
2023-01-28T10:25:00.604Z,34.66
2023-01-28T10:27:31.609Z,35.82
2023-01-28T10:30:01.022Z,37.13
2023-01-28T10:32:32.603Z,35.86
2023-01-28T10:35:00.308Z,34.79
2023-01-28T10:37:29.703Z,35.41
2023-01-28T10:40:00.220Z,36.14
2023-01-28T10:42:30.632Z,38.58
2023-01-28T10:45:02.883Z,36.14
2023-01-28T10:47:39.991Z,37.55
2023-01-28T10:50:17.910Z,39.32
2023-01-28T10:53:04.856Z,38.98
2023-01-28T10:55:38.549Z,37.76
2023-01-28T10:58:05.844Z,37.13
2023-01-28T11:00:37.166Z,38.03
2023-01-28T11:03:06.543Z,36.94
2023-01-28T11:05:33.745Z,36.33
2023-01-28T11:08:06.543Z,37.08
2023-01-28T11:10:36.169Z,35.39
2023-01-28T11:13:06.362Z,34.18
2023-01-28T11:15:33.762Z,35.08
2023-01-28T11:18:04.943Z,34.53
2023-01-28T11:20:39.065Z,33.51
2023-01-28T11:23:06.204Z,34.85
2023-01-28T11:25:36.186Z,34.33
2023-01-28T11:28:15.851Z,34.67
2023-01-28T11:30:43.191Z,35.13
2023-01-28T11:33:21.047Z,35.75
2023-01-28T11:36:20.532Z,36.20
2023-01-28T11:38:52.605Z,36.31
2023-01-28T11:41:28.370Z,36.12
2023-01-28T11:43:59.187Z,36.47
2023-01-28T11:46:50.505Z,36.70
2023-01-28T11:49:30.649Z,36.65
2023-01-28T11:52:15.586Z,36.73
2023-01-28T11:54:55.326Z,37.16
2023-01-28T11:57:26.746Z,36.35
2023-01-28T12:00:29.503Z,37.33
2023-01-28T12:03:20.855Z,36.10
2023-01-28T12:05:53.507Z,36.48
2023-01-28T12:08:40.146Z,37.41
2023-01-28T12:11:28.365Z,37.12
2023-01-28T12:14:08.391Z,37.59
2023-01-28T12:16:53.110Z,37.34
2023-01-28T12:19:51.831Z,37.23
2023-01-28T12:22:50.131Z,36.51
2023-01-28T12:25:32.646Z,36.56
2023-01-28T12:28:09.078Z,36.87
2023-01-28T12:30:58.285Z,36.76
2023-01-28T12:33:57.309Z,36.35
2023-01-28T12:36:43.609Z,37.36
2023-01-28T12:39:26.631Z,37.09
2023-01-28T12:42:05.937Z,36.99
2023-01-28T12:44:38.985Z,37.59
2023-01-28T12:47:11.029Z,37.62
2023-01-28T12:49:45.765Z,38.17
2023-01-28T12:52:21.190Z,37.54
2023-01-28T12:54:59.912Z,37.36
2023-01-28T12:57:31.565Z,37.36
2023-01-28T13:00:16.207Z,37.26
2023-01-28T13:02:53.911Z,37.03
2023-01-28T13:05:28.935Z,37.12
2023-01-28T13:08:03.433Z,37.38
2023-01-28T13:10:38.827Z,36.65
2023-01-28T13:13:16.087Z,37.08
2023-01-28T13:15:45.245Z,36.47
2023-01-28T13:18:52.648Z,44.37
2023-01-28T13:21:40.147Z,36.39
2023-01-28T13:24:31.169Z,36.17
2023-01-28T13:26:59.209Z,35.59
2023-01-28T13:29:34.711Z,36.10
2023-01-28T13:32:23.222Z,36.28
2023-01-28T13:35:00.269Z,36.43
2023-01-28T13:37:34.209Z,36.93
2023-01-28T13:40:09.406Z,36.24
2023-01-28T13:42:39.033Z,36.55
2023-01-28T13:45:24.908Z,36.20
2023-01-28T13:47:59.985Z,36.04
2023-01-28T13:50:39.548Z,37.59
2023-01-28T13:53:24.005Z,36.04
2023-01-28T13:55:57.852Z,36.61
2023-01-28T13:59:08.480Z,35.86
2023-01-28T14:02:15.484Z,36.24
2023-01-28T14:05:23.467Z,37.24
2023-01-28T14:08:26.702Z,37.24
2023-01-28T14:11:16.787Z,46.72
2023-01-28T14:14:17.490Z,36.51
2023-01-28T14:16:57.005Z,42.86
2023-01-28T14:19:30.546Z,34.63
2023-01-28T14:21:57.948Z,35.41
2023-01-28T14:24:27.364Z,35.13
2023-01-28T14:27:07.930Z,35.28
2023-01-28T14:29:49.655Z,34.88
2023-01-28T14:32:24.261Z,35.39
2023-01-28T14:34:53.248Z,35.73
2023-01-28T14:37:26.070Z,36.20
2023-01-28T14:39:59.165Z,35.89
2023-01-28T14:42:32.129Z,36.32
2023-01-28T14:45:14.383Z,36.75
2023-01-28T14:48:05.811Z,37.13
2023-01-28T14:50:55.768Z,36.75
2023-01-28T14:53:49.127Z,35.93
2023-01-28T14:56:30.606Z,36.43
2023-01-28T14:59:04.566Z,36.24
2023-01-28T15:01:32.316Z,36.58
2023-01-28T15:04:01.091Z,35.95
2023-01-28T15:06:34.830Z,36.41
2023-01-28T15:09:09.945Z,36.21
2023-01-28T15:11:41.347Z,36.53
2023-01-28T15:14:16.674Z,36.29
2023-01-28T15:16:50.793Z,36.57
2023-01-28T15:19:48.549Z,37.01
2023-01-28T15:22:19.565Z,36.99
2023-01-28T15:24:47.047Z,37.45
2023-01-28T15:27:19.748Z,37.00
2023-01-28T15:29:53.345Z,37.02
2023-01-28T15:32:26.058Z,37.30
2023-01-28T15:35:02.666Z,37.90
2023-01-28T15:37:30.624Z,37.04
2023-01-28T15:40:02.338Z,37.54
2023-01-28T15:42:29.938Z,37.41
2023-01-28T15:44:58.666Z,37.39
2023-01-28T15:47:30.937Z,37.25
2023-01-28T15:50:05.710Z,37.86
2023-01-28T15:52:36.609Z,37.10
2023-01-28T15:55:05.730Z,37.20
2023-01-28T15:57:34.963Z,37.40
2023-01-28T16:00:13.504Z,37.53
2023-01-28T16:02:45.574Z,37.62
2023-01-28T16:05:31.311Z,37.26
2023-01-28T16:08:02.269Z,37.90
2023-01-28T16:10:31.807Z,37.79
2023-01-28T16:13:13.125Z,38.11
2023-01-28T16:15:47.275Z,38.14
2023-01-28T16:18:33.205Z,37.96
2023-01-28T16:21:02.345Z,37.59
2023-01-28T16:23:29.589Z,38.13
2023-01-28T16:26:01.093Z,37.98
2023-01-28T16:28:28.606Z,37.44
2023-01-28T16:30:57.740Z,37.81
2023-01-28T16:33:26.150Z,38.44
2023-01-28T16:36:06.644Z,37.69
2023-01-28T16:38:37.375Z,37.31
2023-01-28T16:41:05.520Z,37.81
2023-01-28T16:46:09.209Z,37.64
2023-01-28T16:48:37.367Z,37.25
2023-01-28T16:51:05.679Z,37.30
2023-01-28T16:53:34.969Z,38.33
2023-01-28T16:56:08.327Z,37.79
2023-01-28T16:58:38.084Z,37.91
2023-01-28T17:01:05.751Z,37.76
2023-01-28T17:03:33.110Z,37.15
2023-01-28T17:06:00.470Z,37.37
2023-01-28T17:08:28.276Z,37.52
2023-01-28T17:10:56.666Z,37.11
2023-01-28T17:13:26.655Z,36.99
2023-01-28T17:15:54.273Z,37.69
2023-01-28T17:18:21.643Z,38.32
2023-01-28T17:20:48.906Z,37.99
2023-01-28T17:23:17.653Z,38.22
2023-01-28T17:25:44.902Z,37.93
2023-01-28T17:28:13.371Z,37.99
2023-01-28T17:30:42.387Z,38.28
2023-01-28T17:33:09.884Z,38.08
2023-01-28T17:35:37.289Z,39.13
2023-01-28T17:38:05.602Z,38.87
2023-01-28T17:40:33.470Z,38.73
2023-01-28T17:43:07.302Z,38.54
2023-01-28T17:45:34.703Z,38.08
2023-01-28T17:48:03.988Z,37.94
2023-01-28T17:50:31.487Z,37.87
2023-01-28T17:52:59.168Z,37.72
2023-01-28T17:55:42.018Z,38.35
2023-01-28T17:58:09.513Z,38.45
2023-01-28T18:00:38.149Z,37.83
2023-01-28T18:03:06.929Z,38.26
2023-01-28T18:05:35.858Z,38.92
2023-01-28T18:08:06.702Z,39.11
2023-01-28T18:10:33.864Z,39.21
2023-01-28T18:13:01.764Z,38.57
2023-01-28T18:15:28.918Z,38.87
2023-01-28T18:17:57.764Z,38.66
2023-01-28T18:20:26.964Z,39.05
2023-01-28T18:22:54.241Z,38.89
2023-01-28T18:25:22.106Z,38.82
2023-01-28T18:27:49.249Z,38.30
2023-01-28T18:30:17.125Z,39.15
2023-01-28T18:32:45.350Z,38.72
2023-01-28T18:35:12.674Z,38.97
2023-01-28T18:37:46.397Z,39.28
2023-01-28T18:40:16.575Z,38.92
2023-01-28T18:42:47.034Z,38.73
2023-01-28T18:45:15.327Z,38.68
2023-01-28T18:47:43.035Z,37.91
2023-01-28T18:50:25.142Z,38.42
2023-01-28T18:53:04.418Z,39.36
2023-01-28T18:55:45.565Z,38.83
2023-01-28T18:58:14.043Z,39.36
2023-01-28T19:00:51.431Z,39.11
2023-01-28T19:03:23.987Z,39.51
2023-01-28T19:05:52.574Z,39.36
2023-01-28T19:08:25.486Z,39.49
2023-01-28T19:11:23.740Z,39.90
2023-01-28T19:13:56.544Z,39.63
2023-01-28T19:16:28.003Z,39.17
2023-01-28T19:19:02.662Z,38.72
2023-01-28T19:21:38.601Z,39.32
2023-01-28T19:24:14.208Z,39.05
2023-01-28T19:26:44.617Z,38.79
2023-01-28T19:29:16.502Z,58.83
2023-01-28T19:31:46.469Z,46.96
2023-01-28T19:34:36.345Z,36.84
2023-01-28T19:37:06.628Z,34.00
2023-01-28T19:39:39.166Z,29.53
2023-01-28T19:42:09.403Z,31.53
2023-01-28T19:44:39.565Z,32.09
2023-01-28T19:47:06.694Z,32.77
2023-01-28T19:49:37.946Z,34.15
2023-01-28T19:52:05.213Z,35.15
2023-01-28T19:54:32.382Z,35.90
2023-01-28T19:57:02.889Z,36.05
2023-01-28T19:59:30.026Z,36.27
2023-01-28T20:01:57.365Z,36.79
2023-01-28T20:04:24.663Z,37.58
2023-01-28T20:06:53.008Z,37.07
2023-01-28T20:09:21.172Z,37.97
2023-01-28T20:11:58.145Z,37.65
2023-01-28T20:14:32.143Z,37.74
2023-01-28T20:17:01.945Z,37.51
2023-01-28T20:19:29.372Z,38.30
2023-01-28T20:21:59.064Z,38.03
2023-01-28T20:24:26.525Z,37.74
2023-01-28T20:26:58.185Z,38.87
2023-01-28T20:29:28.083Z,38.03
2023-01-28T20:32:14.811Z,38.27
2023-01-28T20:34:43.669Z,38.67
2023-01-28T20:37:11.288Z,38.85
2023-01-28T20:39:38.505Z,38.64
2023-01-28T20:42:05.867Z,38.77
2023-01-28T20:44:33.067Z,39.06
2023-01-28T20:47:03.269Z,39.26
2023-01-28T20:49:30.693Z,39.11
2023-01-28T20:51:57.863Z,38.99
2023-01-28T20:54:25.206Z,39.00
2023-01-28T20:56:54.525Z,39.21
2023-01-28T20:59:21.787Z,39.61
2023-01-28T21:01:49.305Z,39.38
2023-01-28T21:04:19.837Z,38.55
2023-01-28T21:06:47.046Z,39.34
2023-01-28T21:09:14.190Z,38.73
2023-01-28T21:11:43.084Z,38.66
2023-01-28T21:14:10.379Z,39.51
2023-01-28T21:16:37.698Z,39.35
2023-01-28T21:19:04.927Z,39.16
2023-01-28T21:21:37.786Z,39.76
2023-01-28T21:24:06.958Z,39.58
2023-01-28T21:26:34.824Z,39.24
2023-01-28T21:29:04.628Z,39.50
2023-01-28T21:31:31.903Z,39.00
2023-01-28T21:34:03.748Z,39.09
2023-01-28T21:36:31.146Z,39.69
2023-01-28T21:39:04.048Z,39.27
2023-01-28T21:41:33.922Z,39.52
2023-01-28T21:44:03.120Z,39.29
2023-01-28T21:46:33.847Z,39.37
2023-01-28T21:49:04.022Z,39.86
2023-01-28T21:51:32.471Z,39.39
2023-01-28T21:54:01.850Z,39.19
2023-01-28T21:56:34.000Z,39.41
2023-01-28T21:59:04.705Z,39.52
2023-01-28T22:01:32.025Z,39.83
2023-01-28T22:03:59.326Z,39.96
2023-01-28T22:06:26.961Z,39.41
2023-01-28T22:08:55.376Z,39.85
2023-01-28T22:11:23.906Z,39.65
2023-01-28T22:13:53.908Z,39.26
2023-01-28T22:16:21.441Z,39.77
2023-01-28T22:18:54.002Z,39.77
2023-01-28T22:21:28.211Z,39.93
2023-01-28T22:23:58.175Z,39.45
2023-01-28T22:26:31.446Z,39.83
2023-01-28T22:28:58.607Z,39.36
2023-01-28T22:31:25.772Z,39.00
2023-01-28T22:33:52.965Z,39.24
2023-01-28T22:36:20.183Z,39.76
2023-01-28T22:38:47.442Z,39.46
2023-01-28T22:41:17.243Z,39.45
2023-01-28T22:43:51.940Z,38.95
2023-01-28T22:46:24.592Z,39.25
2023-01-28T22:48:52.589Z,39.48
2023-01-28T22:51:23.769Z,39.75
2023-01-28T22:53:56.662Z,40.14
2023-01-28T22:56:28.295Z,40.20
2023-01-28T22:58:59.888Z,39.39
2023-01-28T23:01:31.389Z,39.73
2023-01-28T23:04:00.362Z,39.73
2023-01-28T23:06:33.243Z,39.51
2023-01-28T23:09:00.333Z,39.67
2023-01-28T23:11:27.838Z,39.57
2023-01-28T23:14:00.403Z,39.40
2023-01-28T23:16:35.404Z,39.93
2023-01-28T23:19:03.188Z,40.09
2023-01-28T23:21:31.391Z,40.50
2023-01-28T23:23:58.559Z,39.95
2023-01-28T23:26:26.124Z,40.65
2023-01-28T23:28:53.283Z,40.54
2023-01-28T23:31:24.502Z,41.10
2023-01-28T23:33:51.704Z,40.37
2023-01-28T23:36:21.527Z,40.22
2023-01-28T23:38:48.563Z,40.56
2023-01-28T23:41:15.663Z,39.97
2023-01-28T23:43:42.843Z,39.82
2023-01-28T23:46:10.520Z,40.62
2023-01-28T23:48:41.543Z,40.34
2023-01-28T23:51:08.822Z,40.09
2023-01-28T23:53:36.731Z,39.65
2023-01-28T23:56:05.783Z,39.84
2023-01-28T23:58:43.094Z,40.04
